Impacts METAR Board
IDs:

KEGE - Eagle Cnty Rgnl, CO, US

Updated at: 1700 UTC 31 Jul 2021
Potential Impact None Slight Moderate High
Time 31/05Z 31/06Z 31/07Z 31/08Z 31/09Z 31/10Z 31/11Z 31/12Z 31/13Z 31/14Z 31/15Z 31/16Z 31/17Z
Temp63 61 62 62 60 61 60 59 58 60 61 64 65
Dewpt57 59 57 56 57 57 57 56 55 55 54 56 57
Altim30.46 30.45 30.45 30.46 30.45 30.44 30.43 30.45 30.46 30.47 30.47 30.46 30.46
VIS10 10 10 10 10 10 10 10 10 10 10 10 10
CIG100 -- 110 110 100 100 -- -- -- -- -- 110 110
CoverOVCSCTOVCOVCOVCOVCCLRCLRCLRCLRSCTOVCOVC
FltCatVFRVFRVFRVFRVFRVFRVFRVFRVFRVFRVFRVFRVFR
WX-RA---------RA--------------
WDir2805028000014033014000300270
WSpd3 3 5 0 0 0 4 3 3 0 0 3 5
WGst-- -- -- -- -- -- -- -- -- -- -- -- --
Raw hourly METARs
KEGE 310456Z 28003KT 10SM -RA BKN100 OVC110 17/14 A3046 RMK AO2 SLP248 T01720139 PNO $
KEGE 310556Z 05003KT 10SM SCT100 16/15 A3045 RMK AO2 RAE24 SLP247 6//// T01610150 10200 20161 403170144 50007 PNO $
KEGE 310656Z 28005KT 10SM OVC110 17/14 A3045 RMK AO2 SLP240 T01670139 PNO $
KEGE 310756Z 00000KT 10SM OVC110 17/13 A3046 RMK AO2 SLP238 T01670133 PNO $
KEGE 310856Z 00000KT 10SM OVC100 16/14 A3045 RMK AO2 SLP235 6//// T01560139 58002 PNO $
KEGE 310956Z 00000KT 10SM -RA OVC100 16/14 A3044 RMK AO2 RAB54 SLP232 T01610139 PNO $
KEGE 311056Z 14004KT 10SM CLR 16/14 A3043 RMK AO2 RAE10 SLP239 T01560139 PNO $
KEGE 311156Z 33003KT 10SM CLR 15/13 A3045 RMK AO2 SLP260 6//// 7//// T01500133 10167 20150 55000 PNO $
KEGE 311256Z 14003KT 10SM CLR 14/13 A3046 RMK AO2 SLP269 T01440128 PNO $
KEGE 311356Z 00000KT 10SM CLR 16/13 A3047 RMK AO2 SLP269 T01560128 PNO $
KEGE 311456Z 00000KT 10SM FEW011 SCT100 16/12 A3047 RMK AO2 SLP268 6//// T01610122 50006 PNO $
KEGE 311556Z 30003KT 10SM OVC110 18/13 A3046 RMK AO2 SLP259 T01780133 PNO $
KEGE 311656Z 27005KT 10SM OVC110 18/14 A3046 RMK AO2 SLP263 T01830139 PNO $



Page loaded:  17:49 UTC  |   10:49 AM Pacific  |   11:49 AM Mountain  |   12:49 PM Central  |   01:49 PM Eastern

 

ADVISORIES

FORECASTS

FORECASTS

OBSERVATIONS

USER TOOLS

ABOUT US